CHL6 weather

Huntsville (North) Seaplane Base
Ontario, Canada

Public forecast

Using degrees Celsius for public forecast. Weather courtesy of forecast.io.

METAR (pilot weather report)

Closest report is Muskoka Airport, 21.5 nm (39.8 km) S. Retrieved 2019/09/22 12:44 UTC (14 minutes ago):

CYQA 221244Z AUTO 19009G15KT 6SM -RA BR BKN006 BKN011 OVC021 20/19 A2999 RMK SLP155 DENSITY ALT 1600FT

TAF (pilot weather forecast)

Closest forecast is Muskoka Airport, 21.5 nm (39.8 km) S. Retrieved 2019/09/22 14:39 UTC (0 seconds ago):

TAF CYQA 221338Z 2214/2302 19010KT P6SM SCT006 SCT015 OVC025 TEMPO 2214/2215 5SM -RA BR BKN006 BKN015 OVC025 FM221500 20010G20KT P6SM BKN050 OVC100 TEMPO 2215/2218 3SM -SHRA BR BKN020 OVC050 FM221800 24012G22KT P6SM OVC050 TEMPO 2218/2302 P6SM -SHRA BECMG 2222/2224 22012KT RMK FCST BASED ON AUTO OBS. NXT FCST BY 222000Z